createdAt,value
2022-10-05T00:00:54.592Z,2.80
2022-10-05T00:03:22.657Z,3.30
2022-10-05T00:05:50.024Z,3.60
2022-10-05T00:08:22.534Z,3.70
2022-10-05T00:10:50.640Z,3.25
2022-10-05T00:13:21.759Z,3.08
2022-10-05T00:15:50.030Z,3.30
2022-10-05T00:18:19.943Z,3.13
2022-10-05T00:20:48.866Z,3.50
2022-10-05T00:23:29.370Z,3.40
2022-10-05T00:26:12.304Z,3.72
2022-10-05T00:28:41.391Z,2.72
2022-10-05T00:31:25.751Z,3.08
2022-10-05T00:33:56.583Z,3.75
2022-10-05T00:36:26.019Z,3.50
2022-10-05T00:38:53.307Z,3.67
2022-10-05T00:41:55.239Z,3.67
2022-10-05T00:44:50.737Z,3.45
2022-10-05T00:47:32.591Z,3.55
2022-10-05T00:50:42.604Z,3.90
2022-10-05T00:53:45.665Z,3.38
2022-10-05T00:56:18.616Z,3.70
2022-10-05T00:59:25.685Z,4.28
2022-10-05T01:02:31.874Z,3.28
2022-10-05T01:05:54.920Z,3.40
2022-10-05T01:09:27.931Z,2.88
2022-10-05T01:12:37.245Z,3.00
2022-10-05T01:15:39.573Z,2.92
2022-10-05T01:18:25.908Z,2.53
2022-10-05T01:21:13.638Z,3.00
2022-10-05T01:24:05.386Z,3.65
2022-10-05T01:27:09.515Z,3.15
2022-10-05T01:30:12.247Z,3.05
2022-10-05T01:32:58.563Z,2.90
2022-10-05T01:35:38.237Z,2.90
2022-10-05T01:38:42.563Z,3.35
2022-10-05T01:41:55.052Z,3.53
2022-10-05T01:44:50.746Z,3.78
2022-10-05T01:47:37.432Z,3.88
2022-10-05T01:50:26.145Z,3.90
2022-10-05T01:53:37.803Z,3.80
2022-10-05T01:56:43.346Z,3.65
2022-10-05T01:59:46.812Z,5.20
2022-10-05T02:02:18.802Z,3.30
2022-10-05T02:05:02.932Z,4.13
2022-10-05T02:07:57.460Z,3.97
2022-10-05T02:10:44.575Z,3.80
2022-10-05T02:13:53.075Z,3.70
2022-10-05T02:16:44.113Z,3.72
2022-10-05T02:19:42.608Z,3.83
2022-10-05T02:22:27.585Z,4.32
2022-10-05T02:25:03.110Z,3.88
2022-10-05T02:27:36.744Z,3.20
2022-10-05T02:30:11.581Z,3.50
2022-10-05T02:33:33.729Z,3.10
2022-10-05T02:36:16.011Z,2.80
2022-10-05T02:39:26.485Z,2.92
2022-10-05T02:42:20.084Z,3.45
2022-10-05T02:45:26.236Z,3.63
2022-10-05T02:48:19.396Z,3.63
2022-10-05T02:51:28.811Z,3.83
2022-10-05T02:54:27.849Z,4.80
2022-10-05T02:57:23.944Z,4.65
2022-10-05T03:00:04.491Z,4.20
2022-10-05T03:02:52.965Z,4.32
2022-10-05T03:05:35.277Z,4.68
2022-10-05T03:08:17.102Z,5.10
2022-10-05T03:11:44.303Z,5.43
2022-10-05T03:14:43.238Z,4.97
2022-10-05T03:17:22.395Z,5.13
2022-10-05T03:20:19.733Z,5.00
2022-10-05T03:23:00.487Z,4.82
2022-10-05T03:25:48.285Z,5.20
2022-10-05T03:28:40.218Z,5.97
2022-10-05T03:31:25.199Z,6.20
2022-10-05T03:34:16.121Z,5.40
2022-10-05T03:36:56.667Z,5.97
2022-10-05T03:40:02.925Z,6.82
2022-10-05T03:43:03.654Z,6.43
2022-10-05T03:45:48.126Z,6.30
2022-10-05T03:48:30.564Z,6.20
2022-10-05T03:51:24.979Z,6.30
2022-10-05T03:54:05.606Z,6.25
2022-10-05T03:56:41.399Z,5.82
2022-10-05T03:59:16.897Z,6.30
2022-10-05T04:01:55.715Z,6.35
2022-10-05T04:04:34.758Z,6.28
2022-10-05T04:07:02.217Z,6.55
2022-10-05T04:09:38.409Z,6.25
2022-10-05T04:12:30.326Z,6.78
2022-10-05T04:15:06.841Z,5.85
2022-10-05T04:17:36.428Z,6.72
2022-10-05T04:20:38.259Z,6.53
2022-10-05T04:23:58.750Z,6.28
2022-10-05T04:26:43.591Z,5.95
2022-10-05T04:29:37.886Z,6.55
2022-10-05T04:32:37.821Z,6.57
2022-10-05T04:35:38.063Z,6.18
2022-10-05T04:38:26.734Z,7.50
2022-10-05T04:41:14.710Z,7.35
2022-10-05T04:44:13.785Z,7.47
2022-10-05T04:47:17.787Z,7.13
2022-10-05T04:49:47.547Z,6.53
2022-10-05T04:53:03.834Z,8.02
2022-10-05T04:55:55.607Z,7.50
2022-10-05T04:59:02.150Z,7.65
2022-10-05T05:01:54.857Z,6.82
2022-10-05T05:04:35.834Z,7.35
2022-10-05T05:07:21.459Z,6.70
2022-10-05T05:10:07.558Z,7.03
2022-10-05T05:13:12.722Z,6.85
2022-10-05T05:16:08.103Z,6.05
2022-10-05T05:19:01.939Z,6.18
2022-10-05T05:21:35.920Z,6.65
2022-10-05T05:24:33.807Z,6.45
2022-10-05T05:27:34.777Z,6.32
2022-10-05T05:30:24.666Z,6.20
2022-10-05T05:33:18.848Z,6.78
2022-10-05T05:36:23.356Z,6.15
2022-10-05T05:39:23.191Z,6.50
2022-10-05T05:42:25.040Z,5.80
2022-10-05T05:47:38.358Z,6.60
2022-10-05T05:50:30.317Z,7.10
2022-10-05T05:53:24.995Z,6.40
2022-10-05T05:56:14.154Z,6.63
2022-10-05T05:59:16.965Z,6.38
2022-10-05T06:01:52.679Z,6.32
2022-10-05T06:04:28.635Z,6.85
2022-10-05T06:06:58.082Z,6.05
2022-10-05T06:09:43.241Z,6.13
2022-10-05T06:12:50.225Z,5.70
2022-10-05T06:15:43.750Z,6.20
2022-10-05T06:18:17.074Z,5.88
2022-10-05T06:21:19.685Z,5.68
2022-10-05T06:24:00.751Z,5.70
2022-10-05T06:26:52.221Z,5.53
2022-10-05T06:29:24.985Z,5.97
2022-10-05T06:32:27.531Z,6.32
2022-10-05T06:35:17.863Z,7.10
2022-10-05T06:38:49.994Z,6.93
2022-10-05T06:45:03.953Z,5.75
2022-10-05T06:48:02.804Z,5.88
2022-10-05T06:51:50.516Z,5.90
2022-10-05T06:55:01.105Z,6.05
2022-10-05T06:57:49.130Z,6.72
2022-10-05T07:00:24.914Z,5.63
2022-10-05T07:03:47.294Z,5.82
2022-10-05T07:06:30.445Z,5.75
2022-10-05T07:09:16.428Z,5.97
2022-10-05T07:12:11.175Z,5.80
2022-10-05T07:14:58.353Z,6.00
2022-10-05T07:18:10.335Z,5.75
2022-10-05T07:21:18.912Z,5.85
2022-10-05T07:24:33.069Z,5.45
2022-10-05T07:27:23.745Z,6.03
2022-10-05T07:30:14.801Z,5.80
2022-10-05T07:33:13.241Z,6.03
2022-10-05T07:37:15.344Z,5.30
2022-10-05T07:40:03.995Z,4.90
2022-10-05T07:42:59.842Z,5.10
2022-10-05T07:45:52.989Z,4.57
2022-10-05T07:48:35.728Z,5.03
2022-10-05T07:51:34.177Z,4.88
2022-10-05T07:54:24.306Z,4.50
2022-10-05T07:57:29.465Z,4.50
2022-10-05T08:00:13.635Z,5.55
2022-10-05T08:02:55.408Z,5.55
2022-10-05T08:05:30.722Z,4.95
2022-10-05T08:08:31.970Z,4.45
2022-10-05T08:11:12.291Z,4.47
2022-10-05T08:14:06.158Z,4.53
2022-10-05T08:16:38.403Z,4.78
2022-10-05T08:19:37.131Z,5.82
2022-10-05T08:22:13.110Z,4.68
2022-10-05T08:25:04.460Z,5.55
2022-10-05T08:27:56.901Z,4.80
2022-10-05T08:30:24.678Z,5.20
2022-10-05T08:33:13.835Z,5.30
2022-10-05T08:35:51.474Z,4.82
2022-10-05T08:38:28.701Z,4.43
2022-10-05T08:41:52.709Z,4.75
2022-10-05T08:45:06.048Z,3.85
2022-10-05T08:48:09.930Z,4.10
2022-10-05T08:51:04.758Z,3.83
2022-10-05T08:54:11.154Z,4.53
2022-10-05T08:56:49.624Z,3.97
2022-10-05T08:59:34.955Z,3.90
2022-10-05T09:02:37.317Z,3.97
2022-10-05T09:05:37.933Z,3.97
2022-10-05T09:08:35.669Z,3.47
2022-10-05T09:11:03.955Z,3.83
2022-10-05T09:13:58.023Z,4.45
2022-10-05T09:16:44.193Z,4.13
2022-10-05T09:19:51.404Z,3.72
2022-10-05T09:22:39.026Z,3.08
2022-10-05T09:25:28.670Z,3.38
2022-10-05T09:28:03.504Z,3.20
2022-10-05T09:31:03.177Z,3.17
2022-10-05T09:34:06.444Z,3.33
2022-10-05T09:37:21.318Z,3.17
2022-10-05T09:40:20.338Z,2.95
2022-10-05T09:43:10.609Z,3.28
2022-10-05T09:46:03.976Z,3.28
2022-10-05T09:49:28.542Z,3.35
2022-10-05T09:52:15.147Z,2.88
2022-10-05T09:55:27.597Z,3.15
2022-10-05T09:58:28.337Z,3.10
2022-10-05T10:01:34.492Z,3.08
2022-10-05T10:04:32.515Z,3.15
2022-10-05T10:07:17.476Z,3.22
2022-10-05T10:10:29.260Z,2.97
2022-10-05T10:13:21.085Z,2.88
2022-10-05T10:16:31.808Z,2.90
2022-10-05T10:19:29.026Z,2.90
2022-10-05T10:22:52.090Z,2.10
2022-10-05T10:25:27.919Z,2.65
2022-10-05T10:28:25.640Z,2.38
2022-10-05T10:31:26.509Z,2.78
2022-10-05T10:37:33.529Z,2.00
2022-10-05T10:40:30.670Z,2.00
2022-10-05T10:43:18.892Z,2.33
2022-10-05T10:46:30.878Z,2.13
2022-10-05T10:49:18.873Z,2.10
2022-10-05T10:52:24.637Z,2.13
2022-10-05T10:55:44.383Z,2.15
2022-10-05T10:59:01.949Z,2.05
2022-10-05T11:01:50.059Z,2.30
2022-10-05T11:04:38.087Z,1.83
2022-10-05T11:07:32.644Z,1.65
2022-10-05T11:10:29.150Z,1.73
2022-10-05T11:13:21.286Z,1.60
2022-10-05T11:16:15.942Z,1.80
2022-10-05T11:19:24.897Z,1.80
2022-10-05T11:22:41.470Z,1.70
2022-10-05T11:25:45.811Z,1.45
2022-10-05T11:28:59.009Z,1.58
2022-10-05T11:32:19.991Z,1.73
2022-10-05T11:35:07.551Z,1.35
2022-10-05T11:38:02.062Z,1.65
2022-10-05T11:41:06.297Z,1.65
2022-10-05T11:44:12.728Z,1.17
2022-10-05T11:46:55.404Z,1.52
2022-10-05T11:50:13.555Z,1.70
2022-10-05T11:53:13.779Z,1.58
2022-10-05T11:56:27.214Z,1.60
2022-10-05T11:59:09.138Z,1.40
2022-10-05T12:02:15.799Z,1.50
2022-10-05T12:05:21.459Z,1.35
2022-10-05T12:08:20.318Z,1.33
2022-10-05T12:11:30.648Z,1.55
2022-10-05T12:14:12.293Z,1.25
2022-10-05T12:17:05.733Z,1.33
2022-10-05T12:19:42.017Z,1.27
2022-10-05T12:22:37.295Z,1.27
2022-10-05T12:25:46.081Z,1.40
2022-10-05T12:28:23.374Z,1.20
2022-10-05T12:31:17.947Z,1.30
2022-10-05T12:33:58.339Z,1.15
2022-10-05T12:37:14.957Z,1.08
2022-10-05T12:40:30.526Z,1.30
2022-10-05T12:43:33.800Z,1.20
2022-10-05T12:46:32.469Z,1.15
2022-10-05T12:49:30.442Z,1.20
2022-10-05T12:52:28.195Z,1.20
2022-10-05T12:55:13.778Z,1.25
2022-10-05T12:57:58.192Z,1.10
2022-10-05T13:00:25.700Z,1.20
2022-10-05T13:03:32.004Z,1.20
2022-10-05T13:06:24.310Z,1.20
2022-10-05T13:09:12.887Z,1.35
2022-10-05T13:11:52.399Z,1.20
2022-10-05T13:14:43.339Z,1.10
2022-10-05T13:17:54.174Z,1.25
2022-10-05T13:20:40.398Z,1.10
2022-10-05T13:23:31.672Z,1.60
2022-10-05T13:26:07.785Z,1.13
2022-10-05T13:28:49.245Z,1.38
2022-10-05T13:31:40.856Z,1.30
2022-10-05T13:34:31.636Z,1.20
2022-10-05T13:37:27.881Z,1.08
2022-10-05T13:40:10.187Z,1.10
2022-10-05T13:43:20.199Z,1.30
2022-10-05T13:46:02.851Z,1.30
2022-10-05T13:48:47.712Z,1.20
2022-10-05T13:51:17.740Z,1.10
2022-10-05T13:54:30.377Z,1.48
2022-10-05T13:57:26.243Z,1.20
2022-10-05T14:00:02.664Z,1.30
2022-10-05T14:02:43.332Z,1.20
2022-10-05T14:05:29.051Z,1.30
2022-10-05T14:08:04.309Z,1.20
2022-10-05T14:10:43.936Z,1.25
2022-10-05T14:13:46.312Z,1.45
2022-10-05T14:16:13.300Z,1.13
2022-10-05T14:19:18.976Z,1.00
2022-10-05T14:22:01.675Z,1.35
2022-10-05T14:24:49.179Z,1.17
2022-10-05T14:27:30.922Z,1.40
2022-10-05T14:30:12.793Z,1.00
2022-10-05T14:33:03.779Z,1.25
2022-10-05T14:35:51.835Z,1.20
2022-10-05T14:38:21.869Z,1.30
2022-10-05T14:41:27.574Z,1.30
2022-10-05T14:44:04.795Z,1.30
2022-10-05T14:46:34.761Z,1.23
2022-10-05T14:49:37.255Z,1.20
2022-10-05T14:53:18.011Z,1.33
2022-10-05T14:56:17.201Z,1.35
2022-10-05T14:59:15.274Z,1.27
2022-10-05T15:01:54.823Z,1.30
2022-10-05T15:04:52.064Z,1.77
2022-10-05T15:07:38.851Z,1.17
2022-10-05T15:10:32.775Z,1.40
2022-10-05T15:13:15.993Z,1.25
2022-10-05T15:15:54.902Z,1.20
2022-10-05T15:18:51.354Z,1.10
2022-10-05T15:22:07.214Z,1.30
2022-10-05T15:24:50.434Z,1.40
2022-10-05T15:28:01.013Z,1.15
2022-10-05T15:30:28.203Z,1.27
2022-10-05T15:33:20.412Z,1.20
2022-10-05T15:36:22.792Z,1.40
2022-10-05T15:39:10.849Z,1.00
2022-10-05T15:42:02.023Z,1.40
2022-10-05T15:45:02.245Z,1.27
2022-10-05T15:47:59.935Z,1.40
2022-10-05T15:50:35.689Z,1.20
2022-10-05T15:53:23.487Z,1.20
2022-10-05T15:56:03.672Z,1.20
2022-10-05T15:58:42.279Z,1.52
2022-10-05T16:01:31.092Z,1.30
2022-10-05T16:04:39.034Z,1.52
2022-10-05T16:07:38.592Z,1.40
2022-10-05T16:10:23.339Z,1.63
2022-10-05T16:13:20.811Z,1.40
2022-10-05T16:16:21.039Z,1.30
2022-10-05T16:19:11.009Z,1.10
2022-10-05T16:22:18.850Z,1.70
2022-10-05T16:25:09.218Z,2.00
2022-10-05T16:28:14.420Z,1.42
2022-10-05T16:31:21.960Z,1.25
2022-10-05T16:34:01.196Z,1.60
2022-10-05T16:36:52.417Z,1.40
2022-10-05T16:39:48.684Z,1.30
2022-10-05T16:42:34.738Z,1.33
2022-10-05T16:45:57.452Z,1.40
2022-10-05T16:48:34.174Z,1.70
2022-10-05T16:51:41.899Z,1.50
2022-10-05T16:54:23.490Z,1.23
2022-10-05T16:56:59.313Z,1.67
2022-10-05T16:59:45.478Z,1.48
2022-10-05T17:02:56.704Z,1.10
2022-10-05T17:06:24.821Z,1.00
2022-10-05T17:09:38.220Z,0.98
2022-10-05T17:12:57.904Z,0.90
2022-10-05T17:15:55.710Z,1.20
2022-10-05T17:19:06.274Z,1.00
2022-10-05T17:21:55.133Z,0.93
2022-10-05T17:25:04.743Z,0.98
2022-10-05T17:27:51.109Z,0.95
2022-10-05T17:30:27.352Z,0.90
2022-10-05T17:33:13.926Z,1.05
2022-10-05T17:36:00.814Z,1.00
2022-10-05T17:38:50.644Z,1.30
2022-10-05T17:41:22.850Z,1.00
2022-10-05T17:44:20.841Z,1.17
2022-10-05T17:47:02.868Z,0.95
2022-10-05T17:50:16.230Z,1.58
2022-10-05T17:53:03.356Z,1.40
2022-10-05T17:55:33.964Z,1.10
2022-10-05T18:00:57.217Z,1.45
2022-10-05T18:03:48.025Z,1.55
2022-10-05T18:06:37.287Z,1.60
2022-10-05T18:09:17.274Z,1.48
2022-10-05T18:11:49.194Z,1.20
2022-10-05T18:14:24.766Z,1.48
2022-10-05T18:17:12.097Z,1.13
2022-10-05T18:19:39.529Z,1.10
2022-10-05T18:22:15.553Z,1.08
2022-10-05T18:25:05.874Z,1.35
2022-10-05T18:28:27.091Z,1.17
2022-10-05T18:31:20.996Z,1.20
2022-10-05T18:34:03.361Z,1.45
2022-10-05T18:36:38.075Z,1.60
2022-10-05T18:39:35.392Z,1.42
2022-10-05T18:42:24.526Z,1.42
2022-10-05T18:45:20.407Z,1.38
2022-10-05T18:47:52.643Z,1.50
2022-10-05T18:50:43.916Z,1.50
2022-10-05T18:53:13.461Z,1.38
2022-10-05T18:56:24.757Z,1.13
2022-10-05T18:59:20.611Z,1.17
2022-10-05T19:02:19.883Z,1.23
2022-10-05T19:05:48.776Z,1.40
2022-10-05T19:09:03.382Z,1.65
2022-10-05T19:11:51.133Z,1.30
2022-10-05T19:14:37.321Z,1.40
2022-10-05T19:17:10.151Z,1.33
2022-10-05T19:20:08.785Z,1.50
2022-10-05T19:23:09.327Z,1.58
2022-10-05T19:25:52.989Z,1.40
2022-10-05T19:28:58.475Z,1.30
2022-10-05T19:31:50.123Z,1.10
2022-10-05T19:34:49.684Z,1.38
2022-10-05T19:37:25.669Z,1.25
2022-10-05T19:40:07.248Z,1.30
2022-10-05T19:43:23.808Z,1.13
2022-10-05T19:46:06.053Z,1.30
2022-10-05T19:48:44.487Z,1.35
2022-10-05T19:51:29.226Z,1.60
2022-10-05T19:54:25.753Z,1.38
2022-10-05T19:56:55.645Z,1.30
2022-10-05T19:59:27.875Z,1.35
2022-10-05T20:01:57.883Z,1.20
2022-10-05T20:04:37.158Z,1.23
2022-10-05T20:07:04.895Z,1.08
2022-10-05T20:09:59.394Z,0.88
2022-10-05T20:12:59.480Z,1.10
2022-10-05T20:15:51.899Z,0.90
2022-10-05T20:18:56.906Z,0.82
2022-10-05T20:21:50.707Z,1.08
2022-10-05T20:24:23.529Z,0.98
2022-10-05T20:27:06.368Z,0.85
2022-10-05T20:29:35.842Z,1.02
2022-10-05T20:32:17.924Z,1.00
2022-10-05T20:34:47.705Z,1.05
2022-10-05T20:37:18.131Z,1.10
2022-10-05T20:39:45.480Z,1.05
2022-10-05T20:42:12.471Z,1.13
2022-10-05T20:44:39.921Z,1.15
2022-10-05T20:47:09.550Z,1.10
2022-10-05T20:49:39.025Z,1.50
2022-10-05T20:52:10.082Z,1.45
2022-10-05T20:54:39.133Z,1.13
2022-10-05T20:57:06.891Z,1.50
2022-10-05T20:59:35.550Z,1.70
2022-10-05T21:02:03.846Z,1.58
2022-10-05T21:04:40.014Z,1.35
2022-10-05T21:07:08.135Z,1.90
2022-10-05T21:09:37.887Z,1.48
2022-10-05T21:12:04.848Z,1.13
2022-10-05T21:14:34.144Z,1.50
2022-10-05T21:17:01.899Z,1.40
2022-10-05T21:19:29.891Z,1.20
2022-10-05T21:22:02.386Z,1.52
2022-10-05T21:24:29.339Z,1.58
2022-10-05T21:26:57.440Z,1.70
2022-10-05T21:29:24.491Z,1.48
2022-10-05T21:31:51.682Z,2.22
2022-10-05T21:34:18.748Z,2.10
2022-10-05T21:36:45.961Z,1.75
2022-10-05T21:39:12.976Z,2.15
2022-10-05T21:41:39.961Z,1.88
2022-10-05T21:44:06.932Z,2.08
2022-10-05T21:46:36.664Z,2.17
2022-10-05T21:49:05.164Z,1.97
2022-10-05T21:51:33.602Z,2.10
2022-10-05T21:54:06.558Z,2.05
2022-10-05T21:56:38.598Z,2.08
2022-10-05T21:59:09.435Z,1.83
2022-10-05T22:01:36.519Z,1.88
2022-10-05T22:04:05.092Z,1.73
2022-10-05T22:06:33.638Z,2.03
2022-10-05T22:09:00.894Z,1.90
2022-10-05T22:11:28.956Z,2.22
2022-10-05T22:14:02.320Z,1.95
2022-10-05T22:16:33.366Z,1.70
2022-10-05T22:19:06.499Z,1.38
2022-10-05T22:21:38.119Z,1.95
2022-10-05T22:24:05.497Z,1.70
2022-10-05T22:26:34.703Z,1.70
2022-10-05T22:29:02.469Z,1.67
2022-10-05T22:31:29.565Z,1.70
2022-10-05T22:33:56.701Z,1.48
2022-10-05T22:36:23.737Z,1.35
2022-10-05T22:38:50.773Z,1.45
2022-10-05T22:41:18.396Z,1.60
2022-10-05T22:43:49.978Z,1.70
2022-10-05T22:46:17.570Z,1.40
2022-10-05T22:48:44.617Z,1.30
2022-10-05T22:51:11.592Z,1.27
2022-10-05T22:53:38.738Z,1.60
2022-10-05T22:56:12.011Z,1.58
2022-10-05T22:58:40.833Z,1.27
2022-10-05T23:01:11.438Z,1.40
2022-10-05T23:03:39.017Z,1.27
2022-10-05T23:06:10.173Z,1.60
2022-10-05T23:08:39.121Z,1.23
2022-10-05T23:11:12.432Z,1.60
2022-10-05T23:13:40.423Z,1.60
2022-10-05T23:16:11.556Z,1.40
2022-10-05T23:18:39.307Z,1.10
2022-10-05T23:21:08.416Z,1.30
2022-10-05T23:23:41.419Z,1.40
2022-10-05T23:26:10.591Z,1.13
2022-10-05T23:28:46.928Z,1.20
2022-10-05T23:31:17.411Z,1.30
2022-10-05T23:33:45.049Z,1.27
2022-10-05T23:36:28.103Z,1.38
2022-10-05T23:38:55.046Z,1.27
2022-10-05T23:41:22.274Z,1.33
2022-10-05T23:43:49.267Z,0.93
2022-10-05T23:46:17.595Z,1.20
2022-10-05T23:48:44.651Z,1.40
2022-10-05T23:51:13.586Z,1.25
2022-10-05T23:53:40.575Z,1.17
2022-10-05T23:56:07.837Z,1.40
2022-10-05T23:58:34.771Z,1.48
